Time;durP1;ratioP1;P1;durP2;ratioP2;P2;SDS_P1;SDS_P2;PMS_P1;PMS_P2;Temp;Humidity;BMP_temperature;BMP_pressure;BME280_temperature;BME280_humidity;BME280_pressure;Samples;Min_cycle;Max_cycle;Signal;HPM_P1;HPM_P2
2022/08/01 00:01:27;;;;;;;6.70;6.20;;;;;;;;;;5065230;28;20375;-60
2022/08/01 00:03:52;;;;;;;6.22;5.82;;;;;;;;;;5062328;28;20417;-60
2022/08/01 00:06:18;;;;;;;6.35;5.75;;;;;;;;;;5045723;28;20485;-60
2022/08/01 00:08:43;;;;;;;7.70;7.10;;;;;;;;;;5064201;28;20032;-60
2022/08/01 00:11:09;;;;;;;6.32;5.82;;;;;;;;;;5066330;28;20478;-60
2022/08/01 00:13:34;;;;;;;6.57;6.18;;;;;;;;;;5060861;28;20471;-60
2022/08/01 00:15:59;;;;;;;6.38;5.97;;;;;;;;;;5062262;28;20036;-61
2022/08/01 00:18:24;;;;;;;5.80;5.40;;;;;;;;;;5064825;28;20035;-59
2022/08/01 00:20:50;;;;;;;7.40;6.82;;;;;;;;;;5065989;28;20024;-60
2022/08/01 00:23:15;;;;;;;6.35;5.80;;;;;;;;;;5060401;28;20036;-60
2022/08/01 00:25:40;;;;;;;6.05;5.55;;;;;;;;;;5064050;28;20359;-60
2022/08/01 00:28:08;;;;;;;5.35;4.95;;;;;;;;;;5065317;28;20528;-60
2022/08/01 00:30:33;;;;;;;5.68;5.28;;;;;;;;;;5047021;28;20024;-59
2022/08/01 00:32:59;;;;;;;5.47;4.97;;;;;;;;;;5062770;28;20028;-60
2022/08/01 00:35:24;;;;;;;4.88;4.57;;;;;;;;;;5062747;28;20111;-60
2022/08/01 00:37:49;;;;;;;5.00;4.60;;;;;;;;;;5063464;28;20479;-60
2022/08/01 00:40:14;;;;;;;5.03;4.60;;;;;;;;;;5044324;28;20032;-60
2022/08/01 00:42:41;;;;;;;6.38;4.72;;;;;;;;;;5061935;28;20071;-60
2022/08/01 00:45:06;;;;;;;5.03;4.63;;;;;;;;;;5063051;28;20142;-60
2022/08/01 00:47:32;;;;;;;4.63;4.32;;;;;;;;;;5066053;28;20025;-60
2022/08/01 00:49:57;;;;;;;4.65;4.28;;;;;;;;;;5061984;28;20489;-59
2022/08/01 00:52:22;;;;;;;3.80;3.50;;;;;;;;;;5062272;28;20032;-60
2022/08/01 00:54:47;;;;;;;4.82;4.53;;;;;;;;;;5061728;28;20024;-60
2022/08/01 00:57:13;;;;;;;4.38;3.97;;;;;;;;;;5047242;28;20411;-60
2022/08/01 00:59:38;;;;;;;3.97;3.78;;;;;;;;;;5063253;28;20059;-60
2022/08/01 01:02:04;;;;;;;4.15;3.80;;;;;;;;;;5061678;28;20028;-61
2022/08/01 01:04:29;;;;;;;3.97;3.67;;;;;;;;;;5064220;28;20043;-60
2022/08/01 01:07:03;;;;;;;4.50;4.10;;;;;;;;;;5060633;28;20032;-60
2022/08/01 01:09:39;;;;;;;4.38;3.65;;;;;;;;;;5060210;28;20040;-60
2022/08/01 01:12:19;;;;;;;3.65;3.45;;;;;;;;;;5061832;28;20039;-61
2022/08/01 01:14:50;;;;;;;4.18;3.92;;;;;;;;;;5061252;28;20029;-60
2022/08/01 01:17:17;;;;;;;3.50;3.30;;;;;;;;;;5062713;28;20517;-60
2022/08/01 01:19:45;;;;;;;4.43;3.97;;;;;;;;;;5061729;28;20029;-60
2022/08/01 01:22:40;;;;;;;3.33;3.22;;;;;;;;;;5063398;28;20036;-59
2022/08/01 01:25:10;;;;;;;3.80;3.25;;;;;;;;;;5022155;28;20129;-60
2022/08/01 01:27:53;;;;;;;3.63;3.33;;;;;;;;;;5003877;28;20030;-60
2022/08/01 01:30:19;;;;;;;3.70;3.40;;;;;;;;;;5018717;28;20515;-60
2022/08/01 01:32:47;;;;;;;6.28;3.90;;;;;;;;;;5021597;28;20178;-60
2022/08/01 01:35:23;;;;;;;3.60;3.30;;;;;;;;;;5021941;28;20075;-60
2022/08/01 01:37:50;;;;;;;4.57;4.18;;;;;;;;;;5018977;28;20033;-60
2022/08/01 01:40:17;;;;;;;3.65;3.45;;;;;;;;;;5018758;28;20044;-60
2022/08/01 01:42:43;;;;;;;4.53;4.13;;;;;;;;;;5021794;28;20064;-61
2022/08/01 01:45:08;;;;;;;3.80;3.60;;;;;;;;;;5019091;28;20045;-60
2022/08/01 01:47:36;;;;;;;3.97;3.53;;;;;;;;;;5018812;28;20543;-60
2022/08/01 01:50:01;;;;;;;3.47;3.28;;;;;;;;;;5019603;28;20022;-60
2022/08/01 01:52:27;;;;;;;3.50;3.20;;;;;;;;;;5021607;28;20483;-60
2022/08/01 01:54:54;;;;;;;3.63;3.42;;;;;;;;;;5017618;28;20061;-60
2022/08/01 01:57:19;;;;;;;3.80;3.50;;;;;;;;;;5018864;28;20029;-61
2022/08/01 01:59:47;;;;;;;4.00;3.60;;;;;;;;;;5014712;28;20037;-60
2022/08/01 02:02:14;;;;;;;3.45;3.22;;;;;;;;;;5053807;28;20215;-60
2022/08/01 02:04:43;;;;;;;3.85;3.55;;;;;;;;;;5063007;28;20038;-60
2022/08/01 02:07:09;;;;;;;4.18;3.55;;;;;;;;;;5061604;28;20025;-60
2022/08/01 02:09:35;;;;;;;4.95;3.60;;;;;;;;;;5059130;28;20410;-60
2022/08/01 02:12:01;;;;;;;3.45;3.15;;;;;;;;;;5061206;28;20036;-60
2022/08/01 02:14:28;;;;;;;3.22;2.92;;;;;;;;;;5059402;28;20024;-61
2022/08/01 02:16:54;;;;;;;3.40;3.10;;;;;;;;;;5061835;28;20040;-61
2022/08/01 02:19:19;;;;;;;3.38;3.08;;;;;;;;;;5061620;28;20028;-60
2022/08/01 02:21:51;;;;;;;4.97;3.08;;;;;;;;;;5061197;28;20032;-60
2022/08/01 02:24:19;;;;;;;3.90;3.53;;;;;;;;;;5061288;28;20036;-61
2022/08/01 02:26:47;;;;;;;3.97;3.65;;;;;;;;;;5061257;28;20043;-60
2022/08/01 02:29:15;;;;;;;3.65;3.35;;;;;;;;;;5061041;28;20074;-61
2022/08/01 02:31:44;;;;;;;5.03;3.20;;;;;;;;;;5063737;28;20043;-60
2022/08/01 02:34:12;;;;;;;3.42;3.08;;;;;;;;;;5060596;28;20542;-61
2022/08/01 02:36:38;;;;;;;4.15;3.78;;;;;;;;;;5060526;28;20040;-60
2022/08/01 02:39:07;;;;;;;5.15;3.08;;;;;;;;;;5059227;28;20072;-61
2022/08/01 02:41:35;;;;;;;3.13;3.03;;;;;;;;;;5059429;28;20063;-60
2022/08/01 02:44:03;;;;;;;4.00;3.40;;;;;;;;;;5059427;28;20032;-60
2022/08/01 02:46:34;;;;;;;3.95;3.50;;;;;;;;;;5059849;28;20040;-60
2022/08/01 02:49:00;;;;;;;3.40;3.20;;;;;;;;;;5060669;28;20031;-60
2022/08/01 02:51:26;;;;;;;5.00;4.55;;;;;;;;;;5060217;28;20024;-60
2022/08/01 02:53:53;;;;;;;4.93;4.50;;;;;;;;;;5060548;28;20392;-60
2022/08/01 02:56:19;;;;;;;4.55;4.25;;;;;;;;;;5062295;28;20047;-60
2022/08/01 02:58:45;;;;;;;4.22;3.92;;;;;;;;;;5063101;28;20029;-60
2022/08/01 03:01:11;;;;;;;4.60;4.30;;;;;;;;;;5060724;28;20506;-60
2022/08/01 03:03:37;;;;;;;4.88;4.43;;;;;;;;;;5060713;28;20172;-60
2022/08/01 03:06:03;;;;;;;4.03;3.72;;;;;;;;;;5065820;28;20036;-60
2022/08/01 03:08:29;;;;;;;4.65;3.80;;;;;;;;;;5067425;28;20535;-60
2022/08/01 03:10:55;;;;;;;12.95;9.15;;;;;;;;;;5060722;28;20640;-60
2022/08/01 03:13:21;;;;;;;9.77;8.88;;;;;;;;;;5060778;28;20036;-60
2022/08/01 03:15:47;;;;;;;4.95;4.45;;;;;;;;;;5045823;28;20071;-60
2022/08/01 03:18:14;;;;;;;5.15;4.65;;;;;;;;;;5064171;28;20039;-60
2022/08/01 03:20:40;;;;;;;4.57;4.28;;;;;;;;;;5063516;28;20493;-60
2022/08/01 03:23:07;;;;;;;4.90;4.60;;;;;;;;;;5062962;28;20040;-60
2022/08/01 03:25:34;;;;;;;4.30;4.00;;;;;;;;;;5061939;28;20039;-60
2022/08/01 03:28:01;;;;;;;4.70;4.32;;;;;;;;;;5061667;28;20035;-60
2022/08/01 03:30:27;;;;;;;4.68;4.38;;;;;;;;;;5062665;28;20028;-60
2022/08/01 03:32:53;;;;;;;5.25;4.85;;;;;;;;;;5063971;28;20075;-59
2022/08/01 03:35:18;;;;;;;5.18;4.68;;;;;;;;;;5066280;28;20313;-60
2022/08/01 03:37:48;;;;;;;4.90;4.50;;;;;;;;;;5067116;28;20112;-60
2022/08/01 03:40:17;;;;;;;4.97;4.32;;;;;;;;;;5060738;28;20440;-60
2022/08/01 03:42:48;;;;;;;4.50;4.22;;;;;;;;;;5064305;28;20028;-60
2022/08/01 03:45:20;;;;;;;4.43;4.13;;;;;;;;;;5065573;28;20032;-60
2022/08/01 03:47:46;;;;;;;5.15;4.80;;;;;;;;;;5037780;28;20436;-60
2022/08/01 03:50:13;;;;;;;4.50;4.20;;;;;;;;;;5063304;28;20036;-60
2022/08/01 03:52:39;;;;;;;4.30;4.00;;;;;;;;;;5064565;28;20025;-61
2022/08/01 03:55:06;;;;;;;5.90;4.28;;;;;;;;;;5061195;28;20028;-60
2022/08/01 03:57:32;;;;;;;5.00;4.43;;;;;;;;;;5061699;28;20033;-60
2022/08/01 03:59:58;;;;;;;5.13;4.65;;;;;;;;;;5060725;28;20111;-60
2022/08/01 04:02:25;;;;;;;5.68;5.07;;;;;;;;;;5060293;28;20033;-60
2022/08/01 04:04:51;;;;;;;5.00;4.60;;;;;;;;;;5061418;28;20031;-62
2022/08/01 04:07:27;;;;;;;4.30;4.00;;;;;;;;;;5061479;28;20123;-60
2022/08/01 04:09:53;;;;;;;5.35;4.80;;;;;;;;;;5059944;28;20166;-60
2022/08/01 04:12:18;;;;;;;4.78;4.47;;;;;;;;;;5062317;28;20028;-60
2022/08/01 04:14:44;;;;;;;5.55;5.05;;;;;;;;;;5061541;28;20028;-60
2022/08/01 04:17:09;;;;;;;5.00;4.60;;;;;;;;;;5059009;28;20044;-60
2022/08/01 04:19:35;;;;;;;6.00;5.60;;;;;;;;;;5063144;28;20082;-59
2022/08/01 04:22:00;;;;;;;4.72;4.43;;;;;;;;;;5059425;28;20547;-60
2022/08/01 04:24:28;;;;;;;8.77;5.07;;;;;;;;;;5063514;28;20402;-60
2022/08/01 04:26:53;;;;;;;5.45;4.90;;;;;;;;;;5059106;28;20036;-60
2022/08/01 04:29:19;;;;;;;5.13;4.68;;;;;;;;;;5063346;28;20071;-60
2022/08/01 04:31:46;;;;;;;7.10;5.20;;;;;;;;;;5062812;28;20028;-60
2022/08/01 04:34:13;;;;;;;4.95;4.55;;;;;;;;;;5063186;28;20025;-60
2022/08/01 04:36:41;;;;;;;5.47;4.97;;;;;;;;;;5061423;28;20058;-60
2022/08/01 04:39:08;;;;;;;5.50;5.10;;;;;;;;;;5061826;28;20119;-60
2022/08/01 04:41:35;;;;;;;4.82;4.43;;;;;;;;;;5059341;28;20048;-60
2022/08/01 04:44:02;;;;;;;5.35;4.25;;;;;;;;;;5043158;28;20074;-60
2022/08/01 04:46:28;;;;;;;3.97;3.70;;;;;;;;;;5042345;28;20032;-60
2022/08/01 04:48:54;;;;;;;3.80;3.53;;;;;;;;;;5061200;28;20028;-60
2022/08/01 04:51:21;;;;;;;3.75;3.55;;;;;;;;;;5061071;28;20414;-60
2022/08/01 04:53:47;;;;;;;3.40;3.13;;;;;;;;;;5063813;28;20400;-60
2022/08/01 04:56:12;;;;;;;3.72;3.42;;;;;;;;;;5058080;28;20036;-60
2022/08/01 04:58:39;;;;;;;3.28;2.97;;;;;;;;;;5063053;28;20368;-60
2022/08/01 05:01:04;;;;;;;3.75;3.40;;;;;;;;;;5064065;28;20163;-60
2022/08/01 05:03:30;;;;;;;4.15;3.60;;;;;;;;;;5061313;28;20032;-60
2022/08/01 05:05:55;;;;;;;4.30;2.92;;;;;;;;;;5059070;28;20603;-60
2022/08/01 05:08:20;;;;;;;3.25;3.00;;;;;;;;;;5058556;28;20024;-61
2022/08/01 05:10:45;;;;;;;3.47;3.22;;;;;;;;;;5059515;28;20032;-60
2022/08/01 05:13:11;;;;;;;4.22;3.72;;;;;;;;;;5059202;28;20036;-60
2022/08/01 05:15:39;;;;;;;4.72;3.53;;;;;;;;;;5057213;28;20042;-59
2022/08/01 05:18:04;;;;;;;3.40;3.10;;;;;;;;;;5054133;28;20537;-60
2022/08/01 05:20:29;;;;;;;3.78;3.58;;;;;;;;;;5055755;28;20024;-60
2022/08/01 05:22:55;;;;;;;3.67;3.38;;;;;;;;;;5060073;28;20044;-60
2022/08/01 05:25:20;;;;;;;3.90;3.63;;;;;;;;;;5043038;28;20044;-60
2022/08/01 05:27:45;;;;;;;5.93;3.50;;;;;;;;;;5063583;28;20025;-60
2022/08/01 05:30:11;;;;;;;3.65;3.40;;;;;;;;;;5061826;28;20063;-59
2022/08/01 05:32:36;;;;;;;3.95;3.10;;;;;;;;;;5057254;28;20037;-59
2022/08/01 05:35:02;;;;;;;3.50;3.20;;;;;;;;;;5056034;28;20028;-60
2022/08/01 05:37:27;;;;;;;3.97;3.65;;;;;;;;;;5057801;28;20028;-60
2022/08/01 05:39:52;;;;;;;6.18;3.00;;;;;;;;;;5056937;28;20107;-60
2022/08/01 05:42:18;;;;;;;3.75;3.45;;;;;;;;;;5056762;28;20057;-61
2022/08/01 05:44:43;;;;;;;4.68;3.22;;;;;;;;;;5055898;28;20055;-60
2022/08/01 05:47:08;;;;;;;3.85;2.97;;;;;;;;;;5056560;28;20378;-61
2022/08/01 05:49:33;;;;;;;3.80;3.50;;;;;;;;;;5059152;28;20553;-60
2022/08/01 05:52:00;;;;;;;4.30;3.17;;;;;;;;;;5057316;28;20500;-61
2022/08/01 05:54:26;;;;;;;4.07;3.45;;;;;;;;;;5057372;28;20033;-59
2022/08/01 05:56:51;;;;;;;3.58;3.17;;;;;;;;;;5052173;28;20829;-61
2022/08/01 05:59:16;;;;;;;3.15;3.05;;;;;;;;;;5051067;28;20541;-60
2022/08/01 06:01:41;;;;;;;3.40;3.20;;;;;;;;;;5058834;28;20386;-60
2022/08/01 06:04:07;;;;;;;3.55;3.22;;;;;;;;;;5063159;28;20064;-63
2022/08/01 06:06:32;;;;;;;3.53;3.33;;;;;;;;;;5064131;28;20032;-59
2022/08/01 06:08:57;;;;;;;3.05;2.90;;;;;;;;;;5041518;28;20024;-59
2022/08/01 06:11:22;;;;;;;5.10;3.70;;;;;;;;;;5058803;28;20532;-60
2022/08/01 06:13:48;;;;;;;3.47;3.20;;;;;;;;;;5059339;28;20459;-59
2022/08/01 06:16:13;;;;;;;3.22;2.92;;;;;;;;;;5061104;28;20036;-60
2022/08/01 06:18:38;;;;;;;2.90;2.70;;;;;;;;;;5043704;28;20856;-59
2022/08/01 06:21:03;;;;;;;5.75;3.38;;;;;;;;;;5060087;28;20515;-59
2022/08/01 06:23:29;;;;;;;4.10;3.70;;;;;;;;;;5061632;28;20028;-59
2022/08/01 06:25:54;;;;;;;4.25;3.38;;;;;;;;;;5060575;28;20028;-59
2022/08/01 06:28:20;;;;;;;3.67;3.45;;;;;;;;;;5060191;28;20648;-60
2022/08/01 06:30:45;;;;;;;3.70;3.47;;;;;;;;;;5059778;28;20222;-61
2022/08/01 06:33:11;;;;;;;3.45;3.20;;;;;;;;;;5063204;28;20131;-59
2022/08/01 06:35:36;;;;;;;3.50;3.20;;;;;;;;;;5062663;28;20032;-60
2022/08/01 06:38:01;;;;;;;3.70;3.50;;;;;;;;;;5059553;28;20459;-61
2022/08/01 06:40:27;;;;;;;4.70;3.47;;;;;;;;;;5063028;28;20053;-61
2022/08/01 06:42:52;;;;;;;3.70;3.50;;;;;;;;;;5067517;28;20437;-61
2022/08/01 06:45:18;;;;;;;4.80;4.05;;;;;;;;;;5067272;28;20544;-61
2022/08/01 06:47:44;;;;;;;4.28;3.83;;;;;;;;;;5064158;28;20032;-61
2022/08/01 06:50:09;;;;;;;3.80;3.60;;;;;;;;;;5063742;28;20066;-61
2022/08/01 06:52:35;;;;;;;3.10;3.00;;;;;;;;;;5067528;28;20111;-61
2022/08/01 06:55:00;;;;;;;3.20;3.00;;;;;;;;;;5066225;28;20035;-60
2022/08/01 06:57:25;;;;;;;4.25;3.85;;;;;;;;;;5063223;28;20021;-61
2022/08/01 06:59:51;;;;;;;4.70;4.40;;;;;;;;;;5064864;28;20021;-62
2022/08/01 07:02:16;;;;;;;4.45;3.92;;;;;;;;;;5065786;28;20452;-61
2022/08/01 07:04:41;;;;;;;4.13;3.83;;;;;;;;;;5064980;28;20031;-60
2022/08/01 07:07:07;;;;;;;4.15;3.90;;;;;;;;;;5063955;28;20107;-61
2022/08/01 07:09:32;;;;;;;4.95;4.38;;;;;;;;;;5029590;28;20086;-62
2022/08/01 07:11:58;;;;;;;4.72;4.43;;;;;;;;;;5062836;28;20429;-61
2022/08/01 07:14:23;;;;;;;3.65;3.45;;;;;;;;;;5062991;28;20532;-61
2022/08/01 07:16:49;;;;;;;4.03;3.72;;;;;;;;;;5063481;28;20143;-60
2022/08/01 07:19:14;;;;;;;6.63;4.57;;;;;;;;;;5064308;28;20029;-60
2022/08/01 07:21:39;;;;;;;5.82;4.00;;;;;;;;;;5063681;28;20032;-61
2022/08/01 07:24:05;;;;;;;3.60;3.40;;;;;;;;;;5062948;28;20101;-61
2022/08/01 07:26:31;;;;;;;3.95;3.70;;;;;;;;;;5063110;28;20020;-61
2022/08/01 07:28:56;;;;;;;4.05;3.63;;;;;;;;;;5047868;28;20024;-61
2022/08/01 07:31:22;;;;;;;3.85;3.65;;;;;;;;;;5064899;28;20028;-61
2022/08/01 07:33:48;;;;;;;5.38;4.18;;;;;;;;;;5062241;28;20035;-61
2022/08/01 07:36:13;;;;;;;4.10;3.70;;;;;;;;;;5061974;28;20398;-61
2022/08/01 07:38:38;;;;;;;4.20;3.97;;;;;;;;;;5065301;28;20068;-61
2022/08/01 07:41:03;;;;;;;3.65;3.35;;;;;;;;;;5065392;28;20072;-61
2022/08/01 07:43:29;;;;;;;3.70;3.50;;;;;;;;;;5063471;28;20079;-62
2022/08/01 07:45:54;;;;;;;3.88;3.58;;;;;;;;;;5063265;28;20139;-61
2022/08/01 07:48:23;;;;;;;4.20;4.00;;;;;;;;;;5065734;28;20475;-61
2022/08/01 07:50:48;;;;;;;4.10;3.70;;;;;;;;;;5065353;28;20035;-61
2022/08/01 07:53:14;;;;;;;3.20;3.10;;;;;;;;;;5063166;28;20040;-61
2022/08/01 07:55:39;;;;;;;4.00;3.63;;;;;;;;;;5063156;28;20506;-61
2022/08/01 07:58:04;;;;;;;3.60;3.40;;;;;;;;;;5063151;28;20463;-61
2022/08/01 08:00:29;;;;;;;3.58;3.38;;;;;;;;;;5066229;28;20351;-62
2022/08/01 08:02:58;;;;;;;4.80;3.50;;;;;;;;;;5062088;28;20036;-62
2022/08/01 08:05:23;;;;;;;4.38;3.60;;;;;;;;;;5063108;28;20029;-62
2022/08/01 08:07:49;;;;;;;3.25;2.97;;;;;;;;;;5063669;28;20086;-61
2022/08/01 08:10:14;;;;;;;4.10;3.90;;;;;;;;;;5060749;28;20477;-61
2022/08/01 08:12:39;;;;;;;5.32;4.93;;;;;;;;;;5043891;28;20028;-62
2022/08/01 08:15:05;;;;;;;4.07;3.78;;;;;;;;;;5061693;28;20067;-61
2022/08/01 08:17:31;;;;;;;3.53;3.08;;;;;;;;;;5044389;28;20028;-62
2022/08/01 08:19:57;;;;;;;5.47;4.25;;;;;;;;;;5043500;28;20116;-62
2022/08/01 08:22:22;;;;;;;4.25;3.53;;;;;;;;;;5044224;28;20139;-62
2022/08/01 08:24:47;;;;;;;3.85;3.65;;;;;;;;;;5045169;28;20033;-62
2022/08/01 08:27:13;;;;;;;3.50;3.30;;;;;;;;;;5062089;28;20056;-61
2022/08/01 08:29:38;;;;;;;4.30;4.03;;;;;;;;;;5061668;28;20028;-63
2022/08/01 08:32:03;;;;;;;3.30;3.05;;;;;;;;;;5063880;28;20386;-62
2022/08/01 08:34:29;;;;;;;4.20;3.80;;;;;;;;;;5064016;28;20385;-62
2022/08/01 08:36:55;;;;;;;5.13;3.35;;;;;;;;;;5059960;28;20560;-61
2022/08/01 08:39:21;;;;;;;6.35;3.38;;;;;;;;;;5063370;28;20511;-61
2022/08/01 08:41:47;;;;;;;3.40;3.20;;;;;;;;;;5064804;28;20094;-61
2022/08/01 08:44:12;;;;;;;3.83;3.47;;;;;;;;;;5065061;28;20032;-61
2022/08/01 08:46:42;;;;;;;4.20;3.80;;;;;;;;;;5065388;28;20039;-63
2022/08/01 08:49:08;;;;;;;4.10;3.80;;;;;;;;;;5064265;28;20066;-62
2022/08/01 08:51:34;;;;;;;4.82;3.90;;;;;;;;;;5064716;28;20385;-62
2022/08/01 08:54:00;;;;;;;4.25;3.85;;;;;;;;;;5047245;28;20037;-62
2022/08/01 08:56:26;;;;;;;4.20;3.83;;;;;;;;;;5065113;28;20028;-62
2022/08/01 08:58:51;;;;;;;3.65;3.45;;;;;;;;;;5064717;28;20038;-62
2022/08/01 09:01:17;;;;;;;4.00;3.70;;;;;;;;;;5062794;28;20044;-62
2022/08/01 09:03:43;;;;;;;4.43;4.00;;;;;;;;;;5042303;28;20143;-61
2022/08/01 09:06:08;;;;;;;4.13;3.75;;;;;;;;;;5063325;28;20025;-67
2022/08/01 09:08:33;;;;;;;4.60;4.30;;;;;;;;;;5062826;28;20367;-63
2022/08/01 09:10:58;;;;;;;4.40;3.95;;;;;;;;;;5064105;28;20024;-63
2022/08/01 09:13:24;;;;;;;4.50;4.13;;;;;;;;;;5044685;28;20029;-64
2022/08/01 09:15:50;;;;;;;4.07;3.88;;;;;;;;;;5060817;28;20466;-66
2022/08/01 09:18:34;;;;;;;6.32;4.22;;;;;;;;;;5060965;28;20236;-67
2022/08/01 09:21:05;;;;;;;3.47;3.27;;;;;;;;;;5060599;28;20428;-66
2022/08/01 09:23:42;;;;;;;4.53;4.22;;;;;;;;;;5061941;28;20293;-67
2022/08/01 09:26:08;;;;;;;3.88;3.63;;;;;;;;;;5062595;28;20492;-67
2022/08/01 09:28:34;;;;;;;4.80;4.50;;;;;;;;;;5058014;28;20086;-68
2022/08/01 09:31:05;;;;;;;4.47;4.28;;;;;;;;;;5059804;28;20386;-67
2022/08/01 09:33:46;;;;;;;4.70;4.40;;;;;;;;;;5059202;28;20460;-67
2022/08/01 09:36:11;;;;;;;4.43;4.07;;;;;;;;;;5063109;28;20063;-67
2022/08/01 09:38:36;;;;;;;4.10;3.88;;;;;;;;;;5036327;28;20116;-67
2022/08/01 09:41:02;;;;;;;3.95;3.50;;;;;;;;;;5055369;28;20619;-67
2022/08/01 09:43:30;;;;;;;4.30;4.03;;;;;;;;;;5062048;28;20067;-67
2022/08/01 09:45:55;;;;;;;4.30;4.10;;;;;;;;;;5063162;28;20028;-66
2022/08/01 09:48:22;;;;;;;4.43;4.13;;;;;;;;;;5059540;28;20023;-66
2022/08/01 09:50:48;;;;;;;4.82;4.53;;;;;;;;;;5059648;28;20020;-68
2022/08/01 09:53:13;;;;;;;4.28;4.05;;;;;;;;;;5059556;28;20800;-67
2022/08/01 09:55:39;;;;;;;4.93;4.53;;;;;;;;;;5059647;28;20033;-66
2022/08/01 09:58:05;;;;;;;5.32;4.93;;;;;;;;;;5038891;28;20028;-66
2022/08/01 10:00:31;;;;;;;4.10;3.80;;;;;;;;;;5058299;28;20458;-67
2022/08/01 10:02:57;;;;;;;5.05;4.47;;;;;;;;;;5036531;28;20081;-66
2022/08/01 10:05:33;;;;;;;5.10;4.68;;;;;;;;;;5062155;28;20017;-65
2022/08/01 10:07:59;;;;;;;4.57;4.13;;;;;;;;;;5041710;28;20144;-63
2022/08/01 10:10:25;;;;;;;4.90;4.53;;;;;;;;;;5042116;28;20481;-63
2022/08/01 10:12:51;;;;;;;6.47;4.43;;;;;;;;;;5059753;28;20044;-64
2022/08/01 10:15:16;;;;;;;4.85;4.55;;;;;;;;;;5063508;28;20534;-64
2022/08/01 10:17:45;;;;;;;4.40;4.10;;;;;;;;;;5061249;28;20039;-64
2022/08/01 10:20:11;;;;;;;4.28;4.03;;;;;;;;;;5063808;28;20035;-64
2022/08/01 10:22:37;;;;;;;6.50;5.85;;;;;;;;;;5056003;28;20857;-62
2022/08/01 10:25:03;;;;;;;4.53;4.22;;;;;;;;;;5057097;28;20031;-61
2022/08/01 10:27:29;;;;;;;4.82;4.53;;;;;;;;;;5059370;28;20024;-61
2022/08/01 10:29:56;;;;;;;5.15;4.78;;;;;;;;;;5060106;28;20102;-63
2022/08/01 10:32:22;;;;;;;5.10;4.68;;;;;;;;;;5060812;28;20063;-62
2022/08/01 10:34:49;;;;;;;4.60;4.30;;;;;;;;;;5059634;28;20128;-62
2022/08/01 10:37:14;;;;;;;4.32;4.03;;;;;;;;;;5059680;28;20463;-62
2022/08/01 10:39:39;;;;;;;4.88;4.47;;;;;;;;;;5035510;28;20035;-63
2022/08/01 10:42:05;;;;;;;4.57;4.38;;;;;;;;;;5056868;28;20037;-62
2022/08/01 10:44:31;;;;;;;5.72;4.47;;;;;;;;;;5042665;28;20044;-63
2022/08/01 10:47:09;;;;;;;4.60;4.30;;;;;;;;;;5056785;28;20078;-64
2022/08/01 10:49:36;;;;;;;5.35;4.95;;;;;;;;;;5061275;28;20478;-61
2022/08/01 10:52:02;;;;;;;4.97;4.70;;;;;;;;;;5060883;28;20090;-61
2022/08/01 10:54:27;;;;;;;4.82;4.40;;;;;;;;;;5059782;28;20041;-64
2022/08/01 10:56:52;;;;;;;4.53;4.13;;;;;;;;;;5059491;28;20036;-64
2022/08/01 10:59:22;;;;;;;4.55;4.32;;;;;;;;;;5061225;28;20109;-62
2022/08/01 11:01:58;;;;;;;4.95;4.40;;;;;;;;;;5061290;28;20025;-62
2022/08/01 11:04:32;;;;;;;4.95;4.55;;;;;;;;;;5059486;28;20036;-64
2022/08/01 11:07:05;;;;;;;4.65;4.35;;;;;;;;;;5060707;28;20028;-65
2022/08/01 11:09:44;;;;;;;5.30;4.47;;;;;;;;;;5058774;28;20108;-65
2022/08/01 11:12:10;;;;;;;7.70;4.25;;;;;;;;;;5060991;28;20020;-65
2022/08/01 11:14:55;;;;;;;4.68;4.28;;;;;;;;;;5058804;28;20519;-63
2022/08/01 11:17:44;;;;;;;5.82;4.03;;;;;;;;;;5046726;28;20146;-63
2022/08/01 11:20:16;;;;;;;4.47;4.07;;;;;;;;;;5060198;28;20478;-65
2022/08/01 11:23:05;;;;;;;7.25;5.10;;;;;;;;;;5063540;28;20605;-63
2022/08/01 11:25:33;;;;;;;4.32;4.13;;;;;;;;;;5056312;28;20044;-63
2022/08/01 11:28:13;;;;;;;4.40;4.20;;;;;;;;;;5062671;28;20111;-60
2022/08/01 11:30:42;;;;;;;6.65;4.70;;;;;;;;;;5060718;28;20039;-64
2022/08/01 11:33:08;;;;;;;4.20;3.97;;;;;;;;;;5058922;28;20594;-65
2022/08/01 11:35:35;;;;;;;4.93;4.63;;;;;;;;;;5059303;28;20024;-65
2022/08/01 11:38:19;;;;;;;4.28;3.85;;;;;;;;;;5062847;28;20037;-65
2022/08/01 11:40:44;;;;;;;4.53;4.17;;;;;;;;;;5059641;28;20068;-65
2022/08/01 11:43:12;;;;;;;4.43;4.03;;;;;;;;;;5060631;28;20643;-64
2022/08/01 11:45:51;;;;;;;4.13;3.85;;;;;;;;;;5057159;28;20309;-62
2022/08/01 11:48:20;;;;;;;7.38;4.32;;;;;;;;;;5061395;28;20063;-62
2022/08/01 11:50:45;;;;;;;5.47;5.18;;;;;;;;;;5057062;28;20378;-63
2022/08/01 11:53:14;;;;;;;4.88;4.60;;;;;;;;;;5059294;28;20028;-62
2022/08/01 11:55:44;;;;;;;4.65;4.22;;;;;;;;;;5057549;28;20025;-64
2022/08/01 11:58:10;;;;;;;4.47;4.18;;;;;;;;;;5065559;28;20028;-63
2022/08/01 12:00:37;;;;;;;4.07;3.83;;;;;;;;;;5060720;28;20041;-63
2022/08/01 12:03:05;;;;;;;4.38;3.97;;;;;;;;;;5060317;28;20063;-63
2022/08/01 12:05:33;;;;;;;4.00;3.70;;;;;;;;;;5046561;28;20021;-62
2022/08/01 12:07:58;;;;;;;4.55;4.25;;;;;;;;;;5059847;28;20017;-62
2022/08/01 12:10:25;;;;;;;5.30;5.00;;;;;;;;;;5060371;28;20035;-62
2022/08/01 12:12:50;;;;;;;6.32;4.40;;;;;;;;;;5062532;28;20060;-64
2022/08/01 12:15:16;;;;;;;4.85;4.40;;;;;;;;;;5062987;28;20158;-64
2022/08/01 12:17:42;;;;;;;4.60;4.20;;;;;;;;;;5062431;28;20024;-63
2022/08/01 12:20:09;;;;;;;4.75;4.45;;;;;;;;;;5041598;28;20066;-63
2022/08/01 12:22:34;;;;;;;4.93;4.50;;;;;;;;;;5059293;28;20061;-63
2022/08/01 12:25:13;;;;;;;4.43;4.13;;;;;;;;;;5059325;28;20566;-63
2022/08/01 12:27:39;;;;;;;5.28;4.78;;;;;;;;;;5060996;28;20036;-64
2022/08/01 12:30:06;;;;;;;4.53;4.25;;;;;;;;;;5059569;28;20027;-63
2022/08/01 12:32:32;;;;;;;4.50;4.30;;;;;;;;;;5060186;28;20032;-64
2022/08/01 12:35:02;;;;;;;4.68;4.28;;;;;;;;;;5062468;28;20089;-63
2022/08/01 12:37:27;;;;;;;4.32;4.00;;;;;;;;;;5060261;28;20024;-64
2022/08/01 12:39:52;;;;;;;4.72;4.32;;;;;;;;;;5058898;28;20020;-62
2022/08/01 12:42:18;;;;;;;4.95;4.30;;;;;;;;;;5060632;28;20594;-62
2022/08/01 12:44:44;;;;;;;5.03;4.72;;;;;;;;;;5063162;28;20155;-62
2022/08/01 12:47:12;;;;;;;5.18;4.65;;;;;;;;;;5060000;28;20526;-62
2022/08/01 12:49:37;;;;;;;4.28;3.90;;;;;;;;;;5058737;28;20036;-65
2022/08/01 12:52:03;;;;;;;3.85;3.58;;;;;;;;;;5060679;28;20039;-63
2022/08/01 12:54:28;;;;;;;5.05;3.83;;;;;;;;;;5059786;28;20059;-63
2022/08/01 12:56:54;;;;;;;4.22;3.92;;;;;;;;;;5038836;28;20047;-62
2022/08/01 12:59:24;;;;;;;3.75;3.55;;;;;;;;;;5040508;28;20037;-62
2022/08/01 13:01:50;;;;;;;4.03;3.72;;;;;;;;;;5056975;28;20025;-62
2022/08/01 13:04:16;;;;;;;4.45;4.15;;;;;;;;;;5056874;28;20440;-62
2022/08/01 13:06:41;;;;;;;4.22;3.92;;;;;;;;;;5057696;28;20036;-63
2022/08/01 13:09:13;;;;;;;4.53;4.13;;;;;;;;;;5058382;28;20051;-62
2022/08/01 13:11:38;;;;;;;4.38;3.78;;;;;;;;;;5058654;28;20482;-62
2022/08/01 13:14:04;;;;;;;4.20;3.90;;;;;;;;;;5059353;28;20036;-62
2022/08/01 13:16:29;;;;;;;4.93;4.63;;;;;;;;;;5039670;28;20111;-62
2022/08/01 13:18:58;;;;;;;4.78;4.07;;;;;;;;;;5039534;28;20078;-62
2022/08/01 13:21:24;;;;;;;4.68;4.30;;;;;;;;;;5039002;28;20067;-63
2022/08/01 13:24:12;;;;;;;5.28;3.92;;;;;;;;;;5059137;28;20039;-62
2022/08/01 13:26:38;;;;;;;5.47;3.75;;;;;;;;;;5039752;28;20119;-62
2022/08/01 13:29:05;;;;;;;3.42;3.22;;;;;;;;;;5060009;28;20032;-62
2022/08/01 13:31:34;;;;;;;3.67;3.38;;;;;;;;;;5060294;28;20036;-62
2022/08/01 13:33:59;;;;;;;3.65;3.45;;;;;;;;;;5058158;28;20066;-62
2022/08/01 13:36:26;;;;;;;2.90;2.70;;;;;;;;;;5058820;28;20605;-62
2022/08/01 13:41:35;;;;;;;2.67;2.47;;;;;;;;;;5056473;28;20067;-62
2022/08/01 13:44:01;;;;;;;3.70;3.50;;;;;;;;;;5054883;28;20426;-61
2022/08/01 13:46:26;;;;;;;3.65;3.28;;;;;;;;;;5059926;28;20831;-61
2022/08/01 13:48:51;;;;;;;4.30;3.38;;;;;;;;;;5057877;28;20096;-61
2022/08/01 13:51:16;;;;;;;3.63;3.50;;;;;;;;;;5055662;28;20599;-62
2022/08/01 13:53:42;;;;;;;4.15;3.17;;;;;;;;;;5058050;28;20048;-63
2022/08/01 13:56:07;;;;;;;5.88;4.88;;;;;;;;;;5056015;28;20040;-63
2022/08/01 13:58:32;;;;;;;4.55;3.75;;;;;;;;;;5057158;28;20033;-62
2022/08/01 14:00:58;;;;;;;5.13;3.90;;;;;;;;;;5058685;28;20182;-62
2022/08/01 14:03:23;;;;;;;5.05;4.57;;;;;;;;;;5042941;28;20113;-61
2022/08/01 14:05:49;;;;;;;4.47;3.85;;;;;;;;;;5061819;28;20554;-61
2022/08/01 14:08:14;;;;;;;3.55;3.25;;;;;;;;;;5062005;28;20070;-61
2022/08/01 14:10:39;;;;;;;3.72;3.53;;;;;;;;;;5059118;28;20485;-61
2022/08/01 14:13:05;;;;;;;3.40;3.08;;;;;;;;;;5059296;28;20021;-61
2022/08/01 14:15:30;;;;;;;2.83;2.72;;;;;;;;;;5060787;28;20055;-61
2022/08/01 14:17:56;;;;;;;2.95;2.85;;;;;;;;;;5055018;28;20109;-60
2022/08/01 14:20:21;;;;;;;3.85;3.45;;;;;;;;;;5054691;28;20990;-61
2022/08/01 14:22:46;;;;;;;4.60;2.95;;;;;;;;;;5059466;28;20673;-61
2022/08/01 14:25:12;;;;;;;3.10;3.00;;;;;;;;;;5060916;28;20447;-61
2022/08/01 14:27:39;;;;;;;2.85;2.60;;;;;;;;;;5062506;28;20445;-60
2022/08/01 14:30:05;;;;;;;3.33;3.13;;;;;;;;;;5058457;28;20371;-61
2022/08/01 14:32:30;;;;;;;2.92;2.83;;;;;;;;;;5058097;28;20050;-61
2022/08/01 14:34:56;;;;;;;2.63;2.53;;;;;;;;;;5061631;28;20036;-61
2022/08/01 14:37:21;;;;;;;3.30;3.10;;;;;;;;;;5062225;28;20028;-61
2022/08/01 14:39:46;;;;;;;2.92;2.70;;;;;;;;;;5059628;28;20533;-60
2022/08/01 14:42:12;;;;;;;4.03;3.72;;;;;;;;;;5058087;28;20048;-61
2022/08/01 14:44:37;;;;;;;4.18;3.90;;;;;;;;;;5060984;28;20450;-60